Time;durP1;ratioP1;P1;durP2;ratioP2;P2;SDS_P1;SDS_P2;PMS_P1;PMS_P2;Temp;Humidity;BMP_temperature;BMP_pressure;BME280_temperature;BME280_humidity;BME280_pressure;Samples;Min_cycle;Max_cycle;Signal;HPM_P1;HPM_P2
2023/03/17 00:02:15;;;;;;;66.30;35.80;;;;;;;-1.22;54.23;99927.78;108558;1257;108541;-83
2023/03/17 00:04:45;;;;;;;101.70;59.20;;;;;;;-1.23;53.98;99924.48;108751;1251;102487;-79
2023/03/17 00:07:18;;;;;;;69.70;41.20;;;;;;;-1.19;54.18;99929.49;108522;1254;109069;-79
2023/03/17 00:09:54;;;;;;;61.50;33.50;;;;;;;-1.18;54.22;99929.84;108656;1251;92932;-79
2023/03/17 00:12:28;;;;;;;59.30;33.00;;;;;;;-1.18;54.03;99931.57;108715;1253;92904;-79
2023/03/17 00:15:01;;;;;;;58.60;29.20;;;;;;;-1.20;54.23;99931.23;108632;1251;108478;-79
2023/03/17 00:17:54;;;;;;;54.10;29.50;;;;;;;-1.24;54.47;99932.69;108686;1254;100966;-80
2023/03/17 00:20:36;;;;;;;;;;;;;;;-1.33;54.18;99933.30;108640;1254;107671;-79
2023/03/17 00:23:15;;;;;;;69.50;36.10;;;;;;;-1.38;54.57;99930.73;108629;1253;92904;-79
2023/03/17 00:25:46;;;;;;;106.20;55.40;;;;;;;-1.38;54.44;99928.63;108539;1253;93014;-79
2023/03/17 00:28:27;;;;;;;98.90;52.00;;;;;;;-1.33;54.45;99932.26;108594;1254;108518;-79
2023/03/17 00:31:10;;;;;;;105.00;52.50;;;;;;;-1.37;54.32;99940.81;108616;1254;100866;-80
2023/03/17 00:33:53;;;;;;;99.00;51.90;;;;;;;-1.36;54.56;99943.41;108575;1260;108261;-80
2023/03/17 00:36:48;;;;;;;142.70;72.80;;;;;;;-1.36;54.70;99941.50;108454;1254;93302;-79
2023/03/17 00:39:56;;;;;;;158.00;78.50;;;;;;;-1.45;54.58;99949.08;108676;1254;92861;-79
2023/03/17 00:42:34;;;;;;;146.40;72.50;;;;;;;-1.51;54.53;99947.90;108611;1254;111074;-79
2023/03/17 00:45:13;;;;;;;136.90;72.90;;;;;;;-1.56;54.68;99947.95;108545;1251;101227;-79
2023/03/17 00:48:03;;;;;;;135.10;72.10;;;;;;;-1.62;54.88;99942.96;108652;1254;107865;-79
2023/03/17 00:50:34;;;;;;;129.10;64.20;;;;;;;-1.67;54.81;99943.02;108664;1255;93047;-80
2023/03/17 00:53:14;;;;;;;129.10;66.00;;;;;;;-1.70;54.80;99939.90;108650;1251;92981;-79
2023/03/17 00:55:46;;;;;;;121.80;62.60;;;;;;;-1.70;54.73;99941.81;108663;1259;106845;-79
2023/03/17 00:58:45;;;;;;;132.50;69.40;;;;;;;-1.73;54.87;99944.98;108616;1251;99099;-80
2023/03/17 01:01:23;;;;;;;131.30;71.00;;;;;;;-1.72;54.83;99942.00;108487;1251;108267;-79
2023/03/17 01:04:11;;;;;;;135.90;67.10;;;;;;;-1.69;55.12;99938.33;108540;1254;92963;-79
2023/03/17 01:07:05;;;;;;;124.80;62.90;;;;;;;-1.68;55.06;99939.71;108621;1252;92936;-79
2023/03/17 01:09:37;;;;;;;122.00;64.20;;;;;;;-1.71;55.13;99939.91;108908;1252;106944;-79
2023/03/17 01:12:20;;;;;;;117.80;59.10;;;;;;;-1.71;55.03;99936.42;108656;1254;102244;-80
2023/03/17 01:14:52;;;;;;;113.40;56.00;;;;;;;-1.72;55.11;99939.73;108577;1252;106806;-79
2023/03/17 01:17:32;;;;;;;110.40;59.50;;;;;;;-1.76;55.01;99938.38;108524;1253;94228;-80
2023/03/17 01:20:09;;;;;;;113.50;60.40;;;;;;;-1.76;55.25;99934.90;108752;1254;95503;-80
2023/03/17 01:22:48;;;;;;;111.50;59.90;;;;;;;-1.75;55.32;99937.50;108515;1254;111261;-79
2023/03/17 01:25:18;;;;;;;117.50;58.90;;;;;;;-1.73;55.13;99935.05;108625;1254;100787;-79
2023/03/17 01:27:52;;;;;;;97.30;49.40;;;;;;;-1.69;55.32;99937.28;108484;1254;109007;-79
2023/03/17 01:30:30;;;;;;;99.10;49.90;;;;;;;-1.75;55.20;99940.46;108459;1255;94863;-80
2023/03/17 01:33:01;;;;;;;94.30;46.50;;;;;;;-1.82;55.18;99943.30;108585;1254;94322;-79
2023/03/17 01:35:32;;;;;;;98.00;49.30;;;;;;;-1.86;55.34;99946.46;108555;1260;109936;-79
2023/03/17 01:38:08;;;;;;;94.60;49.20;;;;;;;-1.85;55.73;99948.73;108595;1254;99789;-79
2023/03/17 01:40:59;;;;;;;;;;;;;;;;;;;;;
2023/03/17 01:43:42;;;;;;;89.80;44.90;;;;;;;-1.91;55.86;99953.80;108706;1254;94312;-80
2023/03/17 01:46:29;;;;;;;87.30;46.30;;;;;;;-1.92;55.63;99959.55;108643;1254;94222;-79
2023/03/17 01:49:29;;;;;;;92.80;49.20;;;;;;;-1.95;55.49;99956.60;108716;1254;111082;-79
2023/03/17 01:52:10;;;;;;;94.70;48.50;;;;;;;-1.91;55.51;99962.66;108743;1254;101199;-79
2023/03/17 01:55:14;;;;;;;88.70;47.30;;;;;;;-1.88;55.49;99960.56;108664;1254;108856;-79
2023/03/17 01:57:56;;;;;;;84.00;45.90;;;;;;;-1.86;55.72;99958.80;108665;1254;94677;-79
2023/03/17 02:00:49;;;;;;;89.00;45.30;;;;;;;-1.87;55.63;99954.48;108712;1254;94920;-79
2023/03/17 02:03:52;;;;;;;82.70;41.40;;;;;;;-1.90;55.84;99942.84;108715;1254;111193;-79
2023/03/17 02:06:22;;;;;;;80.60;41.60;;;;;;;-1.89;55.46;99942.14;108638;1252;102866;-79
2023/03/17 02:09:08;;;;;;;78.30;39.80;;;;;;;-1.92;55.65;99932.95;108728;1254;106748;-79
2023/03/17 02:11:50;;;;;;;72.80;36.60;;;;;;;-1.94;55.84;99932.43;108801;1254;94296;-79
2023/03/17 02:14:22;;;;;;;68.30;35.10;;;;;;;-2.04;55.76;99931.30;108685;1254;94267;-80
2023/03/17 02:17:06;;;;;;;69.30;35.30;;;;;;;-2.14;55.97;99934.14;108768;1251;109850;-78
2023/03/17 02:19:44;;;;;;;62.40;33.20;;;;;;;-2.14;56.00;99935.88;108674;1251;101273;-79
2023/03/17 02:22:30;;;;;;;;;;;;;;;;;;;;;
2023/03/17 02:25:07;;;;;;;71.30;36.90;;;;;;;-2.09;56.12;99933.06;108821;1251;94440;-79
2023/03/17 02:27:42;;;;;;;66.20;35.30;;;;;;;-2.11;55.93;99930.48;108821;1251;94264;-79
2023/03/17 02:30:18;;;;;;;65.30;33.20;;;;;;;-2.15;55.84;99923.54;108796;1254;107653;-79
2023/03/17 02:32:49;;;;;;;61.90;30.90;;;;;;;-2.19;55.99;99920.80;108685;1254;100832;-79
2023/03/17 02:35:18;;;;;;;66.10;33.00;;;;;;;-2.22;56.09;99920.80;108488;1254;109899;-80
2023/03/17 02:37:53;;;;;;;59.50;30.20;;;;;;;-2.17;55.83;99915.73;108595;1256;94780;-83
2023/03/17 02:40:23;;;;;;;56.40;29.60;;;;;;;-2.15;56.37;99910.52;108640;1252;94693;-79
2023/03/17 02:42:55;;;;;;;54.10;27.70;;;;;;;-2.15;56.23;99908.95;108474;1253;110826;-79
2023/03/17 02:45:40;;;;;;;55.90;28.90;;;;;;;-2.18;56.26;99911.39;108540;1251;100699;-81
2023/03/17 02:48:11;;;;;;;54.20;28.30;;;;;;;-2.21;56.38;99912.64;108782;1251;107614;-79
2023/03/17 02:51:03;;;;;;;51.50;26.50;;;;;;;-2.22;56.32;99911.08;108576;1251;94290;-79
2023/03/17 02:53:42;;;;;;;55.50;28.40;;;;;;;-2.20;56.41;99911.93;108663;1251;94262;-79
2023/03/17 02:56:57;;;;;;;46.00;23.60;;;;;;;-2.17;56.67;99912.27;108638;1251;109780;-79
2023/03/17 02:59:24;;;;;;;43.70;21.40;;;;;;;-2.18;56.62;99909.83;108823;1254;100857;-79
2023/03/17 03:01:51;;;;;;;45.00;20.30;;;;;;;-2.19;56.65;99912.63;108762;1251;94327;-79
2023/03/17 03:04:41;;;;;;;45.20;21.90;;;;;;;-2.20;56.53;99914.02;108624;1253;94587;-80
2023/03/17 03:07:16;;;;;;;48.20;22.90;;;;;;;-2.22;56.82;99911.42;108782;1254;94285;-80
2023/03/17 03:09:48;;;;;;;53.30;25.50;;;;;;;-2.22;56.69;99912.48;108552;1254;110062;-79
2023/03/17 03:12:20;;;;;;;53.40;25.80;;;;;;;-2.24;56.73;99914.57;108559;1254;103757;-79
2023/03/17 03:14:59;;;;;;;58.60;28.20;;;;;;;-2.27;56.51;99919.63;108526;1257;108506;-79
2023/03/17 03:17:35;;;;;;;61.50;33.00;;;;;;;-2.33;56.64;99921.05;108496;1254;94273;-80
2023/03/17 03:20:15;;;;;;;;;;;;;;;;;;;;;
2023/03/17 03:22:53;;;;;;;79.50;42.50;;;;;;;-2.33;56.94;99927.83;108608;1253;108490;-79
2023/03/17 03:25:39;;;;;;;;;;;;;;;;;;;;;
2023/03/17 03:28:08;;;;;;;78.90;43.60;;;;;;;-2.31;56.82;99933.56;108511;1253;108090;-79
2023/03/17 03:30:51;;;;;;;;;;;;;;;;;;;;;
2023/03/17 03:33:32;;;;;;;89.90;47.40;;;;;;;-2.35;57.18;99936.54;108643;1253;94270;-80
2023/03/17 03:36:02;;;;;;;87.50;47.50;;;;;;;-2.30;57.11;99936.67;108667;1252;109841;-79
2023/03/17 03:39:03;;;;;;;82.40;43.80;;;;;;;-2.22;57.15;99939.23;108729;1253;100929;-79
2023/03/17 03:41:38;;;;;;;82.30;42.00;;;;;;;-2.20;57.25;99942.34;108652;1256;107118;-79
2023/03/17 03:44:12;;;;;;;70.00;38.40;;;;;;;-2.22;57.06;99942.19;108637;1254;94347;-79
2023/03/17 03:46:42;;;;;;;77.10;40.50;;;;;;;-2.25;56.98;99946.04;108680;1251;94383;-79
2023/03/17 03:49:15;;;;;;;87.20;45.10;;;;;;;-2.28;56.99;99947.80;108669;1251;109434;-79
2023/03/17 03:51:51;;;;;;;76.30;42.00;;;;;;;-2.32;56.92;99947.98;108733;1253;101455;-79
2023/03/17 03:54:30;;;;;;;88.60;42.60;;;;;;;-2.37;57.12;99948.70;108509;1253;109241;-79
2023/03/17 03:57:14;;;;;;;;;;;;;;;;;;;;;
2023/03/17 04:00:02;;;;;;;88.70;45.30;;;;;;;-2.47;57.18;99954.67;108565;1253;94357;-79
2023/03/17 04:02:34;;;;;;;84.10;45.10;;;;;;;-2.48;57.16;99959.89;108645;1251;110589;-79
2023/03/17 04:05:04;;;;;;;84.40;47.20;;;;;;;-2.53;57.03;99959.73;108531;1251;100431;-79
2023/03/17 04:07:36;;;;;;;84.20;46.50;;;;;;;-2.52;57.25;99963.39;108499;1254;109177;-80
2023/03/17 04:10:14;;;;;;;89.60;45.70;;;;;;;-2.55;57.23;99964.09;108583;1254;94287;-79
2023/03/17 04:12:49;;;;;;;90.50;48.80;;;;;;;-2.53;56.96;99965.29;108528;1251;94361;-79
2023/03/17 04:15:19;;;;;;;93.40;47.80;;;;;;;-2.50;57.20;99964.08;108580;1251;109834;-79
2023/03/17 04:17:46;;;;;;;91.80;45.80;;;;;;;-2.50;57.28;99961.81;108721;1251;99631;-79
2023/03/17 04:20:15;;;;;;;90.00;48.00;;;;;;;-2.55;57.18;99958.70;108524;1253;94281;-78
2023/03/17 04:23:04;;;;;;;87.20;45.40;;;;;;;-2.57;57.46;99956.79;108529;1253;94270;-79
2023/03/17 04:25:43;;;;;;;89.80;47.30;;;;;;;-2.63;57.44;99956.13;108482;1251;94280;-79
2023/03/17 04:28:15;;;;;;;83.60;43.30;;;;;;;-2.63;57.55;99953.52;108524;1253;109655;-78
2023/03/17 04:30:47;;;;;;;83.20;41.90;;;;;;;-2.61;57.51;99954.90;108592;1254;101016;-79
2023/03/17 04:33:19;;;;;;;79.90;42.40;;;;;;;-2.65;57.57;99955.27;108601;1251;107098;-80
2023/03/17 04:35:54;;;;;;;;;;;;;;;-2.66;57.87;99958.58;108720;1251;94280;-78
2023/03/17 04:38:36;;;;;;;68.40;34.90;;;;;;;-2.69;57.68;99961.71;108828;1253;94370;-82
2023/03/17 04:41:11;;;;;;;64.70;35.20;;;;;;;-2.67;57.79;99965.37;108574;1252;108488;-80
2023/03/17 04:43:51;;;;;;;67.10;33.30;;;;;;;-2.62;57.81;99966.20;108571;1253;101897;-80
2023/03/17 04:47:02;;;;;;;59.90;29.20;;;;;;;-2.56;58.00;99971.38;108437;1253;107341;-79
2023/03/17 04:50:02;;;;;;;61.40;30.40;;;;;;;-2.51;58.01;99970.15;108483;1254;94491;-81
2023/03/17 04:52:35;;;;;;;47.70;20.80;;;;;;;-2.44;57.91;99976.70;108451;1255;94259;-81
2023/03/17 04:55:32;;;;;;;51.60;26.30;;;;;;;-2.36;58.18;99980.48;108432;1253;109369;-82
2023/03/17 04:58:28;;;;;;;;;;;;;;;;;;;;;
2023/03/17 05:01:11;;;;;;;53.70;26.90;;;;;;;-2.24;58.25;99981.98;108422;1254;107877;-79
2023/03/17 05:04:08;;;;;;;39.40;20.50;;;;;;;-2.21;58.27;99985.61;108423;1253;94325;-79
2023/03/17 05:06:40;;;;;;;50.30;26.20;;;;;;;-2.22;57.98;99984.05;108647;1254;95889;-79
2023/03/17 05:09:14;;;;;;;50.30;27.30;;;;;;;-2.21;58.27;99981.28;108642;1253;109697;-79
2023/03/17 05:11:50;;;;;;;49.80;27.40;;;;;;;-2.20;58.16;99975.01;108538;1254;100969;-79
2023/03/17 05:14:27;;;;;;;45.30;24.50;;;;;;;-2.19;58.12;99967.02;108413;1253;108243;-79
2023/03/17 05:17:05;;;;;;;55.30;27.90;;;;;;;-2.17;58.29;99968.56;108449;1254;94305;-80
2023/03/17 05:19:49;;;;;;;52.00;26.30;;;;;;;-2.15;58.42;99968.38;108491;1254;94313;-79
2023/03/17 05:22:27;;;;;;;50.50;27.50;;;;;;;-2.06;58.50;99973.38;108414;1253;111548;-79
2023/03/17 05:25:10;;;;;;;52.90;25.80;;;;;;;-1.99;58.58;99975.92;108482;1253;102290;-78
2023/03/17 05:27:41;;;;;;;54.20;28.40;;;;;;;-1.95;58.43;99981.46;108305;1253;108040;-79
2023/03/17 05:30:22;;;;;;;57.70;29.90;;;;;;;-1.91;58.36;99983.88;108450;1253;94366;-79
2023/03/17 05:32:50;;;;;;;67.80;34.80;;;;;;;-1.85;58.72;99985.23;108466;1253;94331;-79
2023/03/17 05:35:20;;;;;;;65.30;34.10;;;;;;;-1.75;58.61;99991.23;108377;1253;109048;-79
2023/03/17 05:38:31;;;;;;;;;;;;;;;;;;;;;
2023/03/17 05:41:33;;;;;;;53.90;28.50;;;;;;;-1.56;58.67;99994.22;108425;1254;110066;-79
2023/03/17 05:44:15;;;;;;;57.00;31.60;;;;;;;-1.52;58.86;99995.92;108522;1253;94280;-79
2023/03/17 05:47:07;;;;;;;63.80;33.50;;;;;;;-1.44;58.95;99998.48;108474;1254;94275;-79
2023/03/17 05:49:51;;;;;;;61.10;29.50;;;;;;;-1.35;59.11;99996.30;108492;1254;109315;-86
2023/03/17 05:52:32;;;;;;;58.60;30.50;;;;;;;-1.26;59.07;99999.02;108548;1253;100917;-79
2023/03/17 05:55:22;;;;;;;62.50;32.70;;;;;;;-1.22;59.07;99998.61;108468;1254;107787;-82
2023/03/17 05:57:49;;;;;;;72.10;39.40;;;;;;;-1.15;58.93;99996.46;108474;1253;94536;-75
2023/03/17 06:00:17;;;;;;;67.00;35.50;;;;;;;-1.06;59.10;99999.70;108866;1252;94638;-75
2023/03/17 06:02:44;;;;;;;70.30;39.60;;;;;;;-1.01;59.17;100003.46;108555;1253;94999;-73
2023/03/17 06:05:12;;;;;;;66.40;36.70;;;;;;;-0.93;59.06;100000.93;108807;1252;94318;-72
2023/03/17 06:07:38;;;;;;;67.50;36.20;;;;;;;-0.84;59.47;100001.89;108870;1253;94346;-72
2023/03/17 06:10:19;;;;;;;64.00;33.90;;;;;;;-0.76;59.24;100004.26;108826;1253;94305;-73
2023/03/17 06:12:46;;;;;;;61.40;31.40;;;;;;;-0.67;59.53;100004.86;108765;1253;94370;-73
2023/03/17 06:15:12;;;;;;;58.60;31.50;;;;;;;-0.58;59.46;100007.88;108757;1253;94342;-73
2023/03/17 06:17:39;;;;;;;51.70;25.90;;;;;;;-0.52;59.47;100008.85;108767;1253;94305;-73
2023/03/17 06:20:06;;;;;;;44.60;21.60;;;;;;;-0.44;59.52;100007.89;108900;1252;94495;-72
2023/03/17 06:22:32;;;;;;;46.90;23.40;;;;;;;-0.34;59.51;100010.72;108879;1253;94301;-72
2023/03/17 06:24:59;;;;;;;46.90;23.70;;;;;;;-0.24;59.51;100005.89;108875;1253;94497;-73
2023/03/17 06:27:26;;;;;;;47.40;24.00;;;;;;;-0.14;59.59;100003.30;108903;1253;94322;-72
2023/03/17 06:29:52;;;;;;;50.70;24.80;;;;;;;-0.04;59.33;100006.66;108851;1252;94329;-72
2023/03/17 06:32:19;;;;;;;45.30;23.50;;;;;;;0.06;59.76;100010.53;108935;1253;94233;-72
2023/03/17 06:34:47;;;;;;;45.90;23.70;;;;;;;0.13;59.67;100013.39;108873;1253;109723;-72
2023/03/17 06:37:14;;;;;;;44.80;23.60;;;;;;;0.20;59.58;100012.59;108865;1252;94228;-72
2023/03/17 06:39:41;;;;;;;42.70;21.70;;;;;;;0.28;59.68;100007.23;108821;1252;94264;-73
2023/03/17 06:42:07;;;;;;;43.40;22.10;;;;;;;0.37;59.69;100011.98;108924;1253;94730;-72
2023/03/17 06:44:35;;;;;;;45.60;23.80;;;;;;;0.45;59.69;100018.49;108937;1253;94266;-75
2023/03/17 06:47:02;;;;;;;45.50;23.30;;;;;;;0.52;59.72;100022.58;108893;1253;94313;-72
2023/03/17 06:49:29;;;;;;;48.60;23.50;;;;;;;0.60;59.86;100024.72;108854;1253;94273;-72
2023/03/17 06:51:55;;;;;;;42.40;20.10;;;;;;;0.67;59.81;100025.81;108887;1253;94236;-72
2023/03/17 06:54:24;;;;;;;46.30;21.80;;;;;;;0.76;59.91;100023.76;108884;1253;94307;-73
2023/03/17 06:56:51;;;;;;;41.60;21.20;;;;;;;0.83;59.86;100024.32;108921;1253;108398;-73
2023/03/17 06:59:19;;;;;;;38.30;18.90;;;;;;;0.92;59.80;100026.27;108725;1253;100789;-72
2023/03/17 07:01:49;;;;;;;44.90;22.40;;;;;;;0.99;59.73;100022.12;108866;1252;107596;-72
2023/03/17 07:04:15;;;;;;;36.70;18.80;;;;;;;1.06;60.00;100021.98;108917;1253;94321;-73
2023/03/17 07:06:42;;;;;;;37.30;18.00;;;;;;;1.12;59.87;100026.62;108695;1253;94864;-72
2023/03/17 07:09:09;;;;;;;37.70;17.70;;;;;;;1.17;59.88;100026.34;108882;1253;94223;-72
2023/03/17 07:11:36;;;;;;;36.70;18.30;;;;;;;1.24;59.77;100031.81;108725;1252;94630;-72
2023/03/17 07:14:02;;;;;;;39.40;17.90;;;;;;;1.29;59.77;100032.58;108944;1253;94516;-72
2023/03/17 07:16:29;;;;;;;36.70;18.40;;;;;;;1.35;60.04;100029.52;108918;1253;94575;-72
2023/03/17 07:18:56;;;;;;;37.80;18.70;;;;;;;1.41;60.00;100030.45;108936;1252;94281;-72
2023/03/17 07:21:22;;;;;;;37.20;18.10;;;;;;;1.46;60.20;100034.17;108671;1253;94411;-72
2023/03/17 07:23:52;;;;;;;36.40;17.80;;;;;;;1.53;59.98;100034.41;108872;1253;94204;-72
2023/03/17 07:26:18;;;;;;;38.00;16.80;;;;;;;1.57;60.03;100036.76;108799;1252;94300;-72
2023/03/17 07:28:45;;;;;;;34.20;16.80;;;;;;;1.62;60.01;100028.27;108727;1253;94269;-72
2023/03/17 07:31:13;;;;;;;35.00;15.60;;;;;;;1.68;60.10;100029.37;108891;1253;94346;-73
2023/03/17 07:33:40;;;;;;;34.10;17.00;;;;;;;1.74;59.98;100027.49;108679;1253;94366;-72
2023/03/17 07:36:09;;;;;;;33.90;16.10;;;;;;;1.79;60.03;100031.07;108659;1254;94337;-73
2023/03/17 07:38:36;;;;;;;38.00;16.80;;;;;;;1.85;60.35;100033.74;108931;1253;94218;-72
2023/03/17 07:41:03;;;;;;;32.50;16.30;;;;;;;1.91;59.80;100033.09;108965;1252;94288;-73
2023/03/17 07:43:30;;;;;;;34.40;16.30;;;;;;;1.97;60.20;100030.70;108657;1253;94280;-72
2023/03/17 07:45:57;;;;;;;32.80;16.10;;;;;;;2.02;59.90;100033.02;108915;1252;94240;-73
2023/03/17 07:48:24;;;;;;;36.20;16.80;;;;;;;2.08;60.03;100035.69;108669;1253;94425;-73
2023/03/17 07:50:51;;;;;;;38.60;17.30;;;;;;;2.13;60.22;100039.10;108751;1257;94606;-72
2023/03/17 07:53:18;;;;;;;35.50;16.40;;;;;;;2.18;60.23;100035.31;108914;1252;94519;-72
2023/03/17 07:55:44;;;;;;;33.60;15.90;;;;;;;2.25;60.11;100035.15;108760;1253;94363;-72
2023/03/17 07:58:11;;;;;;;40.40;18.40;;;;;;;2.31;60.02;100034.48;108852;1252;107464;-72
2023/03/17 08:00:43;;;;;;;36.00;18.30;;;;;;;2.37;60.03;100036.09;108736;1253;94393;-72
2023/03/17 08:03:10;;;;;;;33.50;15.30;;;;;;;2.43;60.18;100038.77;108925;1253;94202;-72
2023/03/17 08:05:38;;;;;;;31.90;14.20;;;;;;;2.51;60.48;100036.64;108828;1253;110503;-72
2023/03/17 08:08:05;;;;;;;32.40;14.80;;;;;;;2.60;60.28;100041.69;108889;1253;94366;-72
2023/03/17 08:10:31;;;;;;;34.60;14.40;;;;;;;2.67;59.91;100040.29;108859;1253;94300;-72
2023/03/17 08:12:58;;;;;;;31.50;14.50;;;;;;;2.73;60.32;100043.11;108948;1253;94307;-72
2023/03/17 08:15:25;;;;;;;30.50;13.20;;;;;;;2.80;60.16;100041.20;108913;1252;94303;-72
2023/03/17 08:17:53;;;;;;;30.10;13.80;;;;;;;2.89;60.47;100045.34;108996;1253;94927;-76
2023/03/17 08:20:20;;;;;;;30.70;13.30;;;;;;;2.96;60.47;100041.14;108862;1252;107625;-72
2023/03/17 08:22:47;;;;;;;31.70;14.50;;;;;;;3.02;60.20;100043.08;108870;1253;94264;-72
2023/03/17 08:25:14;;;;;;;27.60;12.40;;;;;;;3.09;60.02;100045.19;108674;1253;94260;-73
2023/03/17 08:27:41;;;;;;;26.90;11.60;;;;;;;3.15;59.91;100043.11;108845;1252;94332;-73
2023/03/17 08:30:09;;;;;;;28.60;11.20;;;;;;;3.21;60.41;100041.02;108894;1253;94334;-72
2023/03/17 08:32:36;;;;;;;26.10;11.40;;;;;;;3.30;60.14;100033.08;108881;1253;94568;-75
2023/03/17 08:35:05;;;;;;;23.50;9.70;;;;;;;3.37;60.27;100033.05;108871;1253;94261;-72
2023/03/17 08:37:31;;;;;;;25.10;9.20;;;;;;;3.45;60.36;100030.55;108709;1253;94381;-73
2023/03/17 08:39:58;;;;;;;26.60;10.10;;;;;;;3.54;60.21;100031.53;108741;1253;94808;-72
2023/03/17 08:42:24;;;;;;;29.60;12.40;;;;;;;3.61;60.03;100030.64;108903;1253;94672;-72
2023/03/17 08:44:51;;;;;;;25.70;9.80;;;;;;;3.66;60.17;100030.67;108890;1253;94274;-72
2023/03/17 08:47:18;;;;;;;26.40;10.90;;;;;;;3.72;60.09;100028.55;108958;1252;94309;-73
2023/03/17 08:49:45;;;;;;;24.70;11.00;;;;;;;3.80;60.34;100027.27;108847;1253;109595;-72
2023/03/17 08:52:11;;;;;;;22.80;9.70;;;;;;;3.87;60.16;100025.85;108843;1253;94255;-72
2023/03/17 08:54:38;;;;;;;20.80;8.70;;;;;;;3.94;60.10;100024.05;108796;1252;94312;-72
2023/03/17 08:57:05;;;;;;;21.70;8.60;;;;;;;4.02;60.21;100021.52;108877;1252;94278;-72
2023/03/17 08:59:32;;;;;;;21.40;8.00;;;;;;;4.11;60.21;100021.27;108652;1252;163627;-72
2023/03/17 09:01:59;;;;;;;18.30;7.40;;;;;;;4.17;60.06;100019.48;108886;1253;100603;-72
2023/03/17 09:04:26;;;;;;;19.20;7.20;;;;;;;4.24;60.07;100017.87;108927;1252;94349;-73
2023/03/17 09:06:53;;;;;;;19.20;7.50;;;;;;;4.32;60.22;100019.20;108862;1253;94229;-72
2023/03/17 09:09:31;;;;;;;22.30;8.20;;;;;;;4.42;59.97;100020.84;108848;1252;94335;-72
2023/03/17 09:11:58;;;;;;;25.10;7.80;;;;;;;4.45;60.05;100014.59;108921;1253;109944;-73
2023/03/17 09:14:24;;;;;;;21.00;8.80;;;;;;;4.51;60.09;100016.67;108876;1253;94262;-73
2023/03/17 09:16:51;;;;;;;20.80;8.20;;;;;;;4.57;59.93;100013.00;108878;1254;94260;-72
2023/03/17 09:19:18;;;;;;;23.60;9.80;;;;;;;4.59;59.90;100012.73;108863;1253;94257;-73
2023/03/17 09:21:45;;;;;;;21.70;8.60;;;;;;;4.64;59.83;100015.75;108915;1252;94272;-72
2023/03/17 09:24:12;;;;;;;23.10;9.20;;;;;;;4.71;59.90;100014.44;108925;1253;94287;-72
2023/03/17 09:26:39;;;;;;;17.70;7.10;;;;;;;4.78;59.97;100014.92;108831;1253;94721;-72
2023/03/17 09:29:06;;;;;;;21.40;8.00;;;;;;;4.81;59.77;100010.61;108644;1252;94335;-73
2023/03/17 09:31:34;;;;;;;19.80;7.10;;;;;;;4.83;59.72;100010.36;108726;1252;94921;-72
2023/03/17 09:34:03;;;;;;;21.80;8.20;;;;;;;4.86;59.63;100016.59;108918;1253;109902;-72
2023/03/17 09:36:35;;;;;;;18.70;6.60;;;;;;;4.90;59.51;100010.82;108841;1252;101088;-72
2023/03/17 09:39:01;;;;;;;19.60;7.10;;;;;;;4.96;59.56;100003.61;108796;1252;106012;-72
2023/03/17 09:41:36;;;;;;;21.60;7.20;;;;;;;5.03;59.49;99998.95;108535;1252;94263;-72
2023/03/17 09:44:21;;;;;;;19.60;7.10;;;;;;;5.07;59.28;99997.08;108888;1252;94723;-72
2023/03/17 09:47:05;;;;;;;19.70;6.60;;;;;;;5.13;59.36;99993.70;108861;1253;109883;-72
2023/03/17 09:49:48;;;;;;;17.60;5.80;;;;;;;5.16;59.26;99993.76;108877;1253;100876;-72
2023/03/17 09:52:17;;;;;;;17.70;6.40;;;;;;;5.19;59.29;99993.84;108671;1253;106720;-72
2023/03/17 09:54:48;;;;;;;15.60;5.70;;;;;;;5.23;59.09;99996.52;108730;1252;94411;-73
2023/03/17 09:57:23;;;;;;;17.90;6.00;;;;;;;5.25;58.94;99991.52;108775;1252;94271;-77
2023/03/17 10:00:00;;;;;;;14.90;5.80;;;;;;;5.26;58.95;99987.45;108813;1253;109680;-73
2023/03/17 10:02:32;;;;;;;15.30;5.40;;;;;;;5.30;58.96;99986.77;108788;1253;100645;-73
2023/03/17 10:05:12;;;;;;;15.70;5.10;;;;;;;5.37;58.94;99985.27;108512;1253;107090;-72
2023/03/17 10:07:58;;;;;;;19.30;5.70;;;;;;;5.41;58.48;99979.50;108641;1253;95622;-72
2023/03/17 10:10:41;;;;;;;14.30;4.50;;;;;;;5.44;58.97;99976.95;108782;1253;94301;-72
2023/03/17 10:13:24;;;;;;;13.10;4.90;;;;;;;5.51;58.75;99978.61;108697;1253;109429;-72
2023/03/17 10:16:02;;;;;;;12.70;5.00;;;;;;;5.60;58.70;99975.30;108935;1252;100880;-72
2023/03/17 10:18:55;;;;;;;16.90;5.20;;;;;;;5.64;58.47;99976.88;108909;1253;106307;-72
2023/03/17 10:21:27;;;;;;;11.80;4.60;;;;;;;5.67;58.29;99978.71;108910;1252;94384;-72
2023/03/17 10:23:56;;;;;;;15.00;5.40;;;;;;;5.71;58.37;99979.64;108919;1252;94269;-72
2023/03/17 10:26:34;;;;;;;14.40;4.90;;;;;;;5.73;58.01;99980.27;108740;1252;109504;-72
2023/03/17 10:29:04;;;;;;;12.90;4.80;;;;;;;5.77;58.34;99980.81;108700;1253;100996;-72
2023/03/17 10:31:34;;;;;;;14.90;4.80;;;;;;;5.80;58.23;99975.59;108884;1254;107594;-72
2023/03/17 10:34:31;;;;;;;15.60;4.90;;;;;;;5.84;58.29;99970.00;108717;1253;94319;-72
2023/03/17 10:37:16;;;;;;;15.90;4.50;;;;;;;5.84;58.15;99966.46;108705;1253;94280;-72
2023/03/17 10:39:53;;;;;;;18.20;5.40;;;;;;;5.86;57.92;99961.66;108736;1254;109633;-72
2023/03/17 10:42:28;;;;;;;12.00;4.70;;;;;;;5.88;57.94;99963.13;108908;1252;100177;-72
2023/03/17 10:45:00;;;;;;;13.50;4.70;;;;;;;5.94;57.98;99955.67;108595;1253;107666;-72
2023/03/17 10:47:39;;;;;;;18.10;5.20;;;;;;;6.00;57.58;99952.31;108684;1253;94270;-72
2023/03/17 10:50:27;;;;;;;16.00;5.40;;;;;;;5.98;57.85;99946.74;108904;1253;94270;-72
2023/03/17 10:53:04;;;;;;;12.10;4.10;;;;;;;5.99;57.58;99940.17;108956;1252;109967;-72
2023/03/17 10:55:39;;;;;;;12.10;4.50;;;;;;;6.04;57.57;99934.39;108621;1253;101785;-72
2023/03/17 10:58:14;;;;;;;14.70;5.00;;;;;;;6.09;57.51;99934.87;108672;1253;107631;-72
2023/03/17 11:01:07;;;;;;;15.30;4.70;;;;;;;6.12;57.42;99934.75;108844;1253;94200;-72
2023/03/17 11:03:38;;;;;;;16.40;5.70;;;;;;;6.12;57.09;99923.50;108799;1253;94278;-72
2023/03/17 11:06:09;;;;;;;14.70;4.70;;;;;;;6.15;57.37;99920.40;108917;1253;109889;-72
2023/03/17 11:08:52;;;;;;;12.80;4.70;;;;;;;6.20;57.25;99919.66;108559;1254;101056;-72
2023/03/17 11:11:28;;;;;;;14.30;4.70;;;;;;;6.25;57.05;99917.86;108600;1253;107707;-72
2023/03/17 11:14:02;;;;;;;13.00;4.00;;;;;;;6.24;57.00;99912.28;108739;1253;94250;-73
2023/03/17 11:16:33;;;;;;;12.90;4.40;;;;;;;6.23;56.81;99905.25;108722;1252;95050;-72
2023/03/17 11:19:02;;;;;;;14.00;4.60;;;;;;;6.22;56.63;99903.02;108677;1253;109575;-72
2023/03/17 11:21:31;;;;;;;11.30;4.00;;;;;;;6.21;56.61;99896.69;108575;1253;100902;-72
2023/03/17 11:24:03;;;;;;;12.80;4.40;;;;;;;6.23;56.77;99892.39;108679;1252;106861;-73
2023/03/17 11:26:44;;;;;;;12.60;4.30;;;;;;;6.26;56.68;99890.16;108891;1253;94494;-72
2023/03/17 11:29:40;;;;;;;13.70;4.50;;;;;;;6.29;56.44;99888.13;108890;1252;94296;-72
2023/03/17 11:32:20;;;;;;;12.40;4.00;;;;;;;6.28;56.48;99885.88;108898;1253;109887;-72
2023/03/17 11:35:11;;;;;;;12.90;4.50;;;;;;;6.35;56.61;99883.27;108903;1252;100869;-72
2023/03/17 11:38:14;;;;;;;12.00;4.50;;;;;;;6.43;56.43;99873.28;108876;1253;107848;-72
2023/03/17 11:40:53;;;;;;;12.80;4.30;;;;;;;6.46;56.40;99869.97;108928;1253;94763;-75
2023/03/17 11:43:36;;;;;;;13.70;4.60;;;;;;;6.47;56.33;99862.86;108693;1253;94297;-73
2023/03/17 11:46:14;;;;;;;10.70;3.60;;;;;;;6.51;56.29;99863.92;108918;1253;109941;-74
2023/03/17 11:48:49;;;;;;;12.40;4.30;;;;;;;6.54;55.99;99855.52;108945;1253;100563;-72
2023/03/17 11:51:16;;;;;;;11.80;4.20;;;;;;;6.51;55.87;99852.64;108855;1252;107684;-73
2023/03/17 11:54:09;;;;;;;12.00;4.20;;;;;;;6.49;55.63;99853.63;108897;1253;94346;-72
2023/03/17 11:56:48;;;;;;;10.70;3.80;;;;;;;6.48;55.84;99848.54;108827;1258;94331;-72
2023/03/17 11:59:35;;;;;;;12.20;4.00;;;;;;;6.51;55.84;99845.96;108661;1253;109085;-77